sensor_id;sensor_type;location;lat;lon;timestamp;P1;durP1;ratioP1;P2;durP2;ratioP2
44774;SDS011;31340;51.402;0.016;2022-09-24T00:01:38;7.35;;;2.63;;
44774;SDS011;31340;51.402;0.016;2022-09-24T00:04:10;9.43;;;3.05;;
44774;SDS011;31340;51.402;0.016;2022-09-24T00:06:42;10.60;;;2.35;;
44774;SDS011;31340;51.402;0.016;2022-09-24T00:09:12;8.32;;;2.85;;
44774;SDS011;31340;51.402;0.016;2022-09-24T00:11:41;8.18;;;2.67;;
44774;SDS011;31340;51.402;0.016;2022-09-24T00:14:12;11.93;;;2.85;;
44774;SDS011;31340;51.402;0.016;2022-09-24T00:16:40;11.73;;;2.42;;
44774;SDS011;31340;51.402;0.016;2022-09-24T00:19:11;9.00;;;2.88;;
44774;SDS011;31340;51.402;0.016;2022-09-24T00:21:40;5.35;;;2.17;;
44774;SDS011;31340;51.402;0.016;2022-09-24T00:24:09;13.32;;;3.55;;
44774;SDS011;31340;51.402;0.016;2022-09-24T00:27:03;10.48;;;2.90;;
44774;SDS011;31340;51.402;0.016;2022-09-24T00:29:32;10.20;;;3.10;;
44774;SDS011;31340;51.402;0.016;2022-09-24T00:32:01;8.30;;;2.60;;
44774;SDS011;31340;51.402;0.016;2022-09-24T00:34:31;7.55;;;2.78;;
44774;SDS011;31340;51.402;0.016;2022-09-24T00:36:59;10.57;;;2.65;;
44774;SDS011;31340;51.402;0.016;2022-09-24T00:39:27;11.25;;;2.70;;
44774;SDS011;31340;51.402;0.016;2022-09-24T00:41:54;9.27;;;2.55;;
44774;SDS011;31340;51.402;0.016;2022-09-24T00:50:08;10.77;;;2.50;;
44774;SDS011;31340;51.402;0.016;2022-09-24T00:55:38;12.18;;;2.83;;
44774;SDS011;31340;51.402;0.016;2022-09-24T00:58:09;11.65;;;3.30;;
44774;SDS011;31340;51.402;0.016;2022-09-24T01:00:38;10.32;;;2.65;;
44774;SDS011;31340;51.402;0.016;2022-09-24T01:03:10;10.10;;;3.83;;
44774;SDS011;31340;51.402;0.016;2022-09-24T01:05:44;11.13;;;3.13;;
44774;SDS011;31340;51.402;0.016;2022-09-24T01:08:12;10.70;;;3.30;;
44774;SDS011;31340;51.402;0.016;2022-09-24T01:10:45;7.03;;;2.88;;
44774;SDS011;31340;51.402;0.016;2022-09-24T01:13:45;11.18;;;3.15;;
44774;SDS011;31340;51.402;0.016;2022-09-24T01:21:53;10.85;;;3.00;;
44774;SDS011;31340;51.402;0.016;2022-09-24T01:27:19;12.88;;;3.13;;
44774;SDS011;31340;51.402;0.016;2022-09-24T01:30:18;6.57;;;2.67;;
44774;SDS011;31340;51.402;0.016;2022-09-24T01:32:45;12.15;;;3.20;;
44774;SDS011;31340;51.402;0.016;2022-09-24T01:35:29;14.52;;;3.22;;
44774;SDS011;31340;51.402;0.016;2022-09-24T01:38:02;13.68;;;3.97;;
44774;SDS011;31340;51.402;0.016;2022-09-24T01:40:35;12.52;;;3.25;;
44774;SDS011;31340;51.402;0.016;2022-09-24T01:43:04;14.30;;;3.40;;
44774;SDS011;31340;51.402;0.016;2022-09-24T01:45:36;12.40;;;3.53;;
44774;SDS011;31340;51.402;0.016;2022-09-24T01:48:06;10.73;;;3.20;;
44774;SDS011;31340;51.402;0.016;2022-09-24T01:50:38;9.35;;;3.35;;
44774;SDS011;31340;51.402;0.016;2022-09-24T01:53:29;14.68;;;3.85;;
44774;SDS011;31340;51.402;0.016;2022-09-24T01:56:06;11.27;;;4.00;;
44774;SDS011;31340;51.402;0.016;2022-09-24T01:58:50;8.70;;;2.78;;
44774;SDS011;31340;51.402;0.016;2022-09-24T02:01:35;10.77;;;3.80;;
44774;SDS011;31340;51.402;0.016;2022-09-24T02:04:10;14.88;;;2.90;;
44774;SDS011;31340;51.402;0.016;2022-09-24T02:06:48;12.27;;;4.13;;
44774;SDS011;31340;51.402;0.016;2022-09-24T02:09:29;12.73;;;4.30;;
44774;SDS011;31340;51.402;0.016;2022-09-24T02:12:03;14.73;;;4.55;;
44774;SDS011;31340;51.402;0.016;2022-09-24T02:14:36;12.40;;;3.88;;
44774;SDS011;31340;51.402;0.016;2022-09-24T02:17:10;16.80;;;4.18;;
44774;SDS011;31340;51.402;0.016;2022-09-24T02:19:40;10.63;;;3.65;;
44774;SDS011;31340;51.402;0.016;2022-09-24T02:22:08;16.05;;;3.92;;
44774;SDS011;31340;51.402;0.016;2022-09-24T02:27:16;10.55;;;4.07;;
44774;SDS011;31340;51.402;0.016;2022-09-24T02:29:45;14.85;;;4.55;;
44774;SDS011;31340;51.402;0.016;2022-09-24T02:32:13;11.95;;;4.22;;
44774;SDS011;31340;51.402;0.016;2022-09-24T02:34:44;9.63;;;4.25;;
44774;SDS011;31340;51.402;0.016;2022-09-24T02:37:16;10.48;;;4.10;;
44774;SDS011;31340;51.402;0.016;2022-09-24T02:39:43;15.43;;;4.78;;
44774;SDS011;31340;51.402;0.016;2022-09-24T02:42:11;18.75;;;5.25;;
44774;SDS011;31340;51.402;0.016;2022-09-24T02:44:40;15.88;;;6.03;;
44774;SDS011;31340;51.402;0.016;2022-09-24T02:47:07;21.60;;;7.50;;
44774;SDS011;31340;51.402;0.016;2022-09-24T02:49:35;14.50;;;8.73;;
44774;SDS011;31340;51.402;0.016;2022-09-24T02:52:02;20.45;;;10.43;;
44774;SDS011;31340;51.402;0.016;2022-09-24T02:54:30;21.30;;;10.80;;
44774;SDS011;31340;51.402;0.016;2022-09-24T02:56:58;17.33;;;9.60;;
44774;SDS011;31340;51.402;0.016;2022-09-24T02:59:25;20.35;;;10.38;;
44774;SDS011;31340;51.402;0.016;2022-09-24T03:01:53;21.42;;;11.13;;
44774;SDS011;31340;51.402;0.016;2022-09-24T03:04:21;25.20;;;11.02;;
44774;SDS011;31340;51.402;0.016;2022-09-24T03:06:49;23.60;;;12.52;;
44774;SDS011;31340;51.402;0.016;2022-09-24T03:09:16;23.30;;;12.60;;
44774;SDS011;31340;51.402;0.016;2022-09-24T03:11:43;24.40;;;12.18;;
44774;SDS011;31340;51.402;0.016;2022-09-24T03:14:12;26.13;;;12.50;;
44774;SDS011;31340;51.402;0.016;2022-09-24T03:16:39;28.25;;;12.80;;
44774;SDS011;31340;51.402;0.016;2022-09-24T03:19:07;22.65;;;12.27;;
44774;SDS011;31340;51.402;0.016;2022-09-24T03:21:35;22.67;;;11.60;;
44774;SDS011;31340;51.402;0.016;2022-09-24T03:24:02;32.58;;;14.05;;
44774;SDS011;31340;51.402;0.016;2022-09-24T03:26:30;24.67;;;13.35;;
44774;SDS011;31340;51.402;0.016;2022-09-24T03:28:58;23.33;;;12.15;;
44774;SDS011;31340;51.402;0.016;2022-09-24T03:31:25;24.50;;;11.63;;
44774;SDS011;31340;51.402;0.016;2022-09-24T03:33:53;25.27;;;12.90;;
44774;SDS011;31340;51.402;0.016;2022-09-24T03:36:22;32.42;;;14.63;;
44774;SDS011;31340;51.402;0.016;2022-09-24T03:38:55;28.55;;;13.88;;
44774;SDS011;31340;51.402;0.016;2022-09-24T03:41:24;22.27;;;12.25;;
44774;SDS011;31340;51.402;0.016;2022-09-24T03:43:53;32.80;;;12.73;;
44774;SDS011;31340;51.402;0.016;2022-09-24T03:46:21;26.20;;;12.15;;
44774;SDS011;31340;51.402;0.016;2022-09-24T03:48:56;27.90;;;12.45;;
44774;SDS011;31340;51.402;0.016;2022-09-24T03:51:26;18.58;;;10.27;;
44774;SDS011;31340;51.402;0.016;2022-09-24T03:53:53;24.42;;;11.88;;
44774;SDS011;31340;51.402;0.016;2022-09-24T03:56:21;21.52;;;10.52;;
44774;SDS011;31340;51.402;0.016;2022-09-24T03:58:48;20.92;;;10.05;;
44774;SDS011;31340;51.402;0.016;2022-09-24T04:01:16;23.45;;;9.85;;
44774;SDS011;31340;51.402;0.016;2022-09-24T04:03:47;22.05;;;9.98;;
44774;SDS011;31340;51.402;0.016;2022-09-24T04:06:15;16.35;;;9.45;;
44774;SDS011;31340;51.402;0.016;2022-09-24T04:08:49;18.77;;;8.65;;
44774;SDS011;31340;51.402;0.016;2022-09-24T04:11:17;18.77;;;9.45;;
44774;SDS011;31340;51.402;0.016;2022-09-24T04:13:44;22.38;;;9.60;;
44774;SDS011;31340;51.402;0.016;2022-09-24T04:16:12;21.38;;;8.75;;
44774;SDS011;31340;51.402;0.016;2022-09-24T04:18:39;17.67;;;8.15;;
44774;SDS011;31340;51.402;0.016;2022-09-24T04:21:07;19.23;;;8.05;;
44774;SDS011;31340;51.402;0.016;2022-09-24T04:23:35;14.65;;;8.30;;
44774;SDS011;31340;51.402;0.016;2022-09-24T04:26:02;17.58;;;7.60;;
44774;SDS011;31340;51.402;0.016;2022-09-24T04:28:30;14.93;;;7.40;;
44774;SDS011;31340;51.402;0.016;2022-09-24T04:30:58;25.38;;;8.38;;
44774;SDS011;31340;51.402;0.016;2022-09-24T04:33:25;26.75;;;8.82;;
44774;SDS011;31340;51.402;0.016;2022-09-24T04:35:53;26.13;;;8.55;;
44774;SDS011;31340;51.402;0.016;2022-09-24T04:38:20;14.40;;;7.85;;
44774;SDS011;31340;51.402;0.016;2022-09-24T04:40:48;21.10;;;9.15;;
44774;SDS011;31340;51.402;0.016;2022-09-24T04:43:15;19.83;;;8.90;;
44774;SDS011;31340;51.402;0.016;2022-09-24T04:45:45;19.75;;;8.38;;
44774;SDS011;31340;51.402;0.016;2022-09-24T04:48:12;23.33;;;8.82;;
44774;SDS011;31340;51.402;0.016;2022-09-24T04:50:40;23.90;;;9.52;;
44774;SDS011;31340;51.402;0.016;2022-09-24T04:53:12;20.20;;;9.80;;
44774;SDS011;31340;51.402;0.016;2022-09-24T04:55:40;16.00;;;9.00;;
44774;SDS011;31340;51.402;0.016;2022-09-24T04:58:08;24.13;;;10.80;;
44774;SDS011;31340;51.402;0.016;2022-09-24T05:00:36;16.20;;;7.82;;
44774;SDS011;31340;51.402;0.016;2022-09-24T05:03:03;19.17;;;9.13;;
44774;SDS011;31340;51.402;0.016;2022-09-24T05:05:31;20.27;;;8.85;;
44774;SDS011;31340;51.402;0.016;2022-09-24T05:08:00;17.27;;;9.18;;
44774;SDS011;31340;51.402;0.016;2022-09-24T05:10:28;21.77;;;8.88;;
44774;SDS011;31340;51.402;0.016;2022-09-24T05:12:57;18.92;;;9.73;;
44774;SDS011;31340;51.402;0.016;2022-09-24T05:15:25;23.20;;;8.93;;
44774;SDS011;31340;51.402;0.016;2022-09-24T05:17:53;20.88;;;9.70;;
44774;SDS011;31340;51.402;0.016;2022-09-24T05:20:20;20.88;;;9.60;;
44774;SDS011;31340;51.402;0.016;2022-09-24T05:22:48;18.10;;;9.88;;
44774;SDS011;31340;51.402;0.016;2022-09-24T05:25:16;22.15;;;10.38;;
44774;SDS011;31340;51.402;0.016;2022-09-24T05:27:49;16.88;;;8.52;;
44774;SDS011;31340;51.402;0.016;2022-09-24T05:30:18;18.40;;;8.88;;
44774;SDS011;31340;51.402;0.016;2022-09-24T05:32:47;17.48;;;8.73;;
44774;SDS011;31340;51.402;0.016;2022-09-24T05:35:21;17.33;;;8.52;;
44774;SDS011;31340;51.402;0.016;2022-09-24T05:37:50;23.42;;;8.35;;
44774;SDS011;31340;51.402;0.016;2022-09-24T05:40:19;18.10;;;8.00;;
44774;SDS011;31340;51.402;0.016;2022-09-24T05:43:06;15.52;;;7.80;;
44774;SDS011;31340;51.402;0.016;2022-09-24T05:45:33;13.90;;;7.55;;
44774;SDS011;31340;51.402;0.016;2022-09-24T05:48:01;20.13;;;7.25;;
44774;SDS011;31340;51.402;0.016;2022-09-24T05:50:29;14.95;;;6.78;;
44774;SDS011;31340;51.402;0.016;2022-09-24T05:52:58;16.20;;;7.18;;
44774;SDS011;31340;51.402;0.016;2022-09-24T05:55:26;19.15;;;8.57;;
44774;SDS011;31340;51.402;0.016;2022-09-24T05:58:04;23.75;;;8.55;;
44774;SDS011;31340;51.402;0.016;2022-09-24T06:00:35;15.20;;;6.78;;
44774;SDS011;31340;51.402;0.016;2022-09-24T06:03:13;16.08;;;7.25;;
44774;SDS011;31340;51.402;0.016;2022-09-24T06:05:43;14.88;;;6.80;;
44774;SDS011;31340;51.402;0.016;2022-09-24T06:08:12;18.73;;;6.55;;
44774;SDS011;31340;51.402;0.016;2022-09-24T06:10:41;14.25;;;6.07;;
44774;SDS011;31340;51.402;0.016;2022-09-24T06:13:13;15.40;;;6.38;;
44774;SDS011;31340;51.402;0.016;2022-09-24T06:15:43;20.45;;;6.80;;
44774;SDS011;31340;51.402;0.016;2022-09-24T06:18:12;11.18;;;6.20;;
44774;SDS011;31340;51.402;0.016;2022-09-24T06:20:39;11.65;;;6.07;;
44774;SDS011;31340;51.402;0.016;2022-09-24T06:23:07;11.30;;;6.07;;
44774;SDS011;31340;51.402;0.016;2022-09-24T06:25:34;15.60;;;7.10;;
44774;SDS011;31340;51.402;0.016;2022-09-24T06:28:02;17.35;;;8.00;;
44774;SDS011;31340;51.402;0.016;2022-09-24T06:30:32;14.45;;;7.00;;
44774;SDS011;31340;51.402;0.016;2022-09-24T06:33:08;17.23;;;7.88;;
44774;SDS011;31340;51.402;0.016;2022-09-24T06:35:37;14.20;;;6.45;;
44774;SDS011;31340;51.402;0.016;2022-09-24T06:38:08;14.20;;;8.43;;
44774;SDS011;31340;51.402;0.016;2022-09-24T06:40:38;17.88;;;7.50;;
44774;SDS011;31340;51.402;0.016;2022-09-24T06:43:06;19.25;;;7.65;;
44774;SDS011;31340;51.402;0.016;2022-09-24T06:45:35;18.38;;;7.65;;
44774;SDS011;31340;51.402;0.016;2022-09-24T06:48:03;17.40;;;7.43;;
44774;SDS011;31340;51.402;0.016;2022-09-24T06:50:32;16.77;;;7.25;;
44774;SDS011;31340;51.402;0.016;2022-09-24T06:53:03;13.68;;;7.50;;
44774;SDS011;31340;51.402;0.016;2022-09-24T06:55:32;13.80;;;6.05;;
44774;SDS011;31340;51.402;0.016;2022-09-24T06:58:04;15.13;;;7.57;;
44774;SDS011;31340;51.402;0.016;2022-09-24T07:00:34;15.98;;;7.30;;
44774;SDS011;31340;51.402;0.016;2022-09-24T07:03:02;16.35;;;7.82;;
44774;SDS011;31340;51.402;0.016;2022-09-24T07:05:31;17.85;;;7.15;;
44774;SDS011;31340;51.402;0.016;2022-09-24T07:08:07;21.48;;;8.75;;
44774;SDS011;31340;51.402;0.016;2022-09-24T07:10:34;12.25;;;6.85;;
44774;SDS011;31340;51.402;0.016;2022-09-24T07:13:01;17.13;;;8.82;;
44774;SDS011;31340;51.402;0.016;2022-09-24T07:15:29;20.33;;;9.00;;
44774;SDS011;31340;51.402;0.016;2022-09-24T07:17:57;23.17;;;9.30;;
44774;SDS011;31340;51.402;0.016;2022-09-24T07:20:24;20.50;;;9.00;;
44774;SDS011;31340;51.402;0.016;2022-09-24T07:22:55;20.10;;;9.93;;
44774;SDS011;31340;51.402;0.016;2022-09-24T07:25:22;16.20;;;8.85;;
44774;SDS011;31340;51.402;0.016;2022-09-24T07:27:50;19.80;;;8.63;;
44774;SDS011;31340;51.402;0.016;2022-09-24T07:30:18;16.10;;;8.60;;
44774;SDS011;31340;51.402;0.016;2022-09-24T07:32:45;17.83;;;8.32;;
44774;SDS011;31340;51.402;0.016;2022-09-24T07:35:16;23.27;;;8.85;;
44774;SDS011;31340;51.402;0.016;2022-09-24T07:37:44;17.75;;;8.88;;
44774;SDS011;31340;51.402;0.016;2022-09-24T07:40:12;17.83;;;8.57;;
44774;SDS011;31340;51.402;0.016;2022-09-24T07:42:46;15.75;;;9.10;;
44774;SDS011;31340;51.402;0.016;2022-09-24T07:45:14;19.95;;;8.57;;
44774;SDS011;31340;51.402;0.016;2022-09-24T07:47:43;18.52;;;9.15;;
44774;SDS011;31340;51.402;0.016;2022-09-24T07:50:10;16.80;;;9.00;;
44774;SDS011;31340;51.402;0.016;2022-09-24T07:52:39;16.42;;;8.68;;
44774;SDS011;31340;51.402;0.016;2022-09-24T07:55:07;21.90;;;10.18;;
44774;SDS011;31340;51.402;0.016;2022-09-24T07:57:34;20.02;;;9.32;;
44774;SDS011;31340;51.402;0.016;2022-09-24T08:00:02;19.27;;;10.45;;
44774;SDS011;31340;51.402;0.016;2022-09-24T08:02:37;22.33;;;10.75;;
44774;SDS011;31340;51.402;0.016;2022-09-24T08:05:05;20.40;;;9.85;;
44774;SDS011;31340;51.402;0.016;2022-09-24T08:07:32;17.50;;;9.05;;
44774;SDS011;31340;51.402;0.016;2022-09-24T08:10:00;20.30;;;9.25;;
44774;SDS011;31340;51.402;0.016;2022-09-24T08:12:28;19.23;;;9.05;;
44774;SDS011;31340;51.402;0.016;2022-09-24T08:14:56;17.92;;;8.82;;
44774;SDS011;31340;51.402;0.016;2022-09-24T08:17:23;24.70;;;10.38;;
44774;SDS011;31340;51.402;0.016;2022-09-24T08:19:51;19.20;;;9.93;;
44774;SDS011;31340;51.402;0.016;2022-09-24T08:22:22;20.30;;;9.63;;
44774;SDS011;31340;51.402;0.016;2022-09-24T08:24:51;26.52;;;10.40;;
44774;SDS011;31340;51.402;0.016;2022-09-24T08:27:19;18.92;;;9.95;;
44774;SDS011;31340;51.402;0.016;2022-09-24T08:29:46;25.50;;;9.63;;
44774;SDS011;31340;51.402;0.016;2022-09-24T08:32:14;19.00;;;10.88;;
44774;SDS011;31340;51.402;0.016;2022-09-24T08:34:42;22.77;;;12.38;;
44774;SDS011;31340;51.402;0.016;2022-09-24T08:37:11;26.05;;;11.77;;
44774;SDS011;31340;51.402;0.016;2022-09-24T08:39:39;21.83;;;11.80;;
44774;SDS011;31340;51.402;0.016;2022-09-24T08:42:27;21.88;;;11.27;;
44774;SDS011;31340;51.402;0.016;2022-09-24T08:45:02;18.52;;;10.95;;
44774;SDS011;31340;51.402;0.016;2022-09-24T08:47:54;21.42;;;11.27;;
44774;SDS011;31340;51.402;0.016;2022-09-24T08:50:29;26.27;;;11.70;;
44774;SDS011;31340;51.402;0.016;2022-09-24T08:55:44;20.83;;;10.57;;
44774;SDS011;31340;51.402;0.016;2022-09-24T09:01:20;16.08;;;9.68;;
44774;SDS011;31340;51.402;0.016;2022-09-24T09:03:57;21.63;;;10.43;;
44774;SDS011;31340;51.402;0.016;2022-09-24T09:09:24;19.50;;;9.30;;
44774;SDS011;31340;51.402;0.016;2022-09-24T09:12:03;18.10;;;8.88;;
44774;SDS011;31340;51.402;0.016;2022-09-24T09:14:44;17.17;;;8.48;;
44774;SDS011;31340;51.402;0.016;2022-09-24T09:20:26;16.23;;;7.82;;
44774;SDS011;31340;51.402;0.016;2022-09-24T09:23:04;13.30;;;6.60;;
44774;SDS011;31340;51.402;0.016;2022-09-24T09:25:40;15.20;;;6.88;;
44774;SDS011;31340;51.402;0.016;2022-09-24T09:28:13;17.08;;;6.22;;
44774;SDS011;31340;51.402;0.016;2022-09-24T09:33:26;13.32;;;6.00;;
44774;SDS011;31340;51.402;0.016;2022-09-24T09:39:19;17.85;;;6.90;;
44774;SDS011;31340;51.402;0.016;2022-09-24T09:42:25;18.83;;;7.20;;
44774;SDS011;31340;51.402;0.016;2022-09-24T09:45:05;17.00;;;7.13;;
44774;SDS011;31340;51.402;0.016;2022-09-24T09:47:44;16.20;;;5.70;;
44774;SDS011;31340;51.402;0.016;2022-09-24T09:50:26;11.07;;;5.25;;
44774;SDS011;31340;51.402;0.016;2022-09-24T09:53:16;12.77;;;5.43;;
44774;SDS011;31340;51.402;0.016;2022-09-24T09:55:57;6.95;;;4.60;;
44774;SDS011;31340;51.402;0.016;2022-09-24T10:01:14;15.20;;;4.85;;
44774;SDS011;31340;51.402;0.016;2022-09-24T10:03:48;8.10;;;3.83;;
44774;SDS011;31340;51.402;0.016;2022-09-24T10:06:23;12.63;;;3.95;;
44774;SDS011;31340;51.402;0.016;2022-09-24T10:08:50;8.05;;;3.70;;
44774;SDS011;31340;51.402;0.016;2022-09-24T10:11:18;8.45;;;3.58;;
44774;SDS011;31340;51.402;0.016;2022-09-24T10:14:04;7.95;;;3.42;;
44774;SDS011;31340;51.402;0.016;2022-09-24T10:16:39;6.28;;;2.78;;
44774;SDS011;31340;51.402;0.016;2022-09-24T10:19:19;5.05;;;2.83;;
44774;SDS011;31340;51.402;0.016;2022-09-24T10:21:50;5.95;;;2.70;;
44774;SDS011;31340;51.402;0.016;2022-09-24T10:24:21;10.77;;;3.40;;
44774;SDS011;31340;51.402;0.016;2022-09-24T10:26:51;8.32;;;2.83;;
44774;SDS011;31340;51.402;0.016;2022-09-24T10:29:23;6.90;;;2.47;;
44774;SDS011;31340;51.402;0.016;2022-09-24T10:32:15;8.82;;;2.58;;
44774;SDS011;31340;51.402;0.016;2022-09-24T10:34:55;7.03;;;2.40;;
44774;SDS011;31340;51.402;0.016;2022-09-24T10:37:27;4.28;;;2.05;;
44774;SDS011;31340;51.402;0.016;2022-09-24T10:40:18;7.22;;;2.20;;
44774;SDS011;31340;51.402;0.016;2022-09-24T10:42:55;6.45;;;2.15;;
44774;SDS011;31340;51.402;0.016;2022-09-24T10:45:26;5.78;;;2.28;;
44774;SDS011;31340;51.402;0.016;2022-09-24T10:48:19;7.05;;;2.30;;
44774;SDS011;31340;51.402;0.016;2022-09-24T10:50:57;6.78;;;1.80;;
44774;SDS011;31340;51.402;0.016;2022-09-24T10:53:35;9.05;;;2.25;;
44774;SDS011;31340;51.402;0.016;2022-09-24T11:20:49;5.43;;;1.58;;
44774;SDS011;31340;51.402;0.016;2022-09-24T11:29:17;7.18;;;1.20;;
44774;SDS011;31340;51.402;0.016;2022-09-24T11:32:26;4.72;;;1.30;;
44774;SDS011;31340;51.402;0.016;2022-09-24T11:40:58;4.90;;;1.85;;
44774;SDS011;31340;51.402;0.016;2022-09-24T11:44:09;5.63;;;1.27;;
44774;SDS011;31340;51.402;0.016;2022-09-24T11:46:51;5.35;;;1.52;;
44774;SDS011;31340;51.402;0.016;2022-09-24T11:49:42;3.22;;;1.17;;
44774;SDS011;31340;51.402;0.016;2022-09-24T11:52:35;6.40;;;1.30;;
44774;SDS011;31340;51.402;0.016;2022-09-24T11:55:24;7.05;;;1.38;;
44774;SDS011;31340;51.402;0.016;2022-09-24T12:00:45;2.85;;;1.25;;
44774;SDS011;31340;51.402;0.016;2022-09-24T12:03:22;6.32;;;1.70;;
44774;SDS011;31340;51.402;0.016;2022-09-24T12:06:06;3.42;;;1.30;;
44774;SDS011;31340;51.402;0.016;2022-09-24T12:08:58;5.38;;;1.30;;
44774;SDS011;31340;51.402;0.016;2022-09-24T12:11:40;3.63;;;1.55;;
44774;SDS011;31340;51.402;0.016;2022-09-24T12:14:18;4.00;;;1.10;;
44774;SDS011;31340;51.402;0.016;2022-09-24T12:16:52;5.45;;;1.20;;
44774;SDS011;31340;51.402;0.016;2022-09-24T12:19:49;3.33;;;1.20;;
44774;SDS011;31340;51.402;0.016;2022-09-24T12:22:21;5.40;;;1.50;;
44774;SDS011;31340;51.402;0.016;2022-09-24T12:24:53;6.40;;;1.10;;
44774;SDS011;31340;51.402;0.016;2022-09-24T12:27:32;4.82;;;1.30;;
44774;SDS011;31340;51.402;0.016;2022-09-24T12:36:16;9.45;;;1.50;;
44774;SDS011;31340;51.402;0.016;2022-09-24T12:41:26;3.95;;;1.02;;
44774;SDS011;31340;51.402;0.016;2022-09-24T12:44:10;4.55;;;1.08;;
44774;SDS011;31340;51.402;0.016;2022-09-24T12:46:52;3.97;;;1.25;;
44774;SDS011;31340;51.402;0.016;2022-09-24T12:51:53;6.22;;;1.50;;
44774;SDS011;31340;51.402;0.016;2022-09-24T12:54:28;2.67;;;1.13;;
44774;SDS011;31340;51.402;0.016;2022-09-24T12:57:05;3.15;;;1.15;;
44774;SDS011;31340;51.402;0.016;2022-09-24T12:59:49;3.15;;;1.00;;
44774;SDS011;31340;51.402;0.016;2022-09-24T13:02:44;1.50;;;0.90;;
44774;SDS011;31340;51.402;0.016;2022-09-24T13:06:00;2.38;;;1.02;;
44774;SDS011;31340;51.402;0.016;2022-09-24T13:13:59;2.92;;;0.90;;
44774;SDS011;31340;51.402;0.016;2022-09-24T13:16:29;3.15;;;0.95;;
44774;SDS011;31340;51.402;0.016;2022-09-24T13:18:58;6.30;;;1.50;;
44774;SDS011;31340;51.402;0.016;2022-09-24T13:21:28;3.40;;;0.90;;
44774;SDS011;31340;51.402;0.016;2022-09-24T13:23:57;2.28;;;0.90;;
44774;SDS011;31340;51.402;0.016;2022-09-24T13:26:26;3.92;;;1.30;;
44774;SDS011;31340;51.402;0.016;2022-09-24T13:28:59;2.95;;;1.00;;
44774;SDS011;31340;51.402;0.016;2022-09-24T13:31:34;6.30;;;1.20;;
44774;SDS011;31340;51.402;0.016;2022-09-24T13:34:20;2.72;;;1.10;;
44774;SDS011;31340;51.402;0.016;2022-09-24T13:37:03;2.50;;;1.08;;
44774;SDS011;31340;51.402;0.016;2022-09-24T13:39:55;3.20;;;1.30;;
44774;SDS011;31340;51.402;0.016;2022-09-24T13:44:59;4.45;;;1.40;;
44774;SDS011;31340;51.402;0.016;2022-09-24T13:47:37;3.97;;;1.25;;
44774;SDS011;31340;51.402;0.016;2022-09-24T13:50:21;4.15;;;1.70;;
44774;SDS011;31340;51.402;0.016;2022-09-24T13:55:36;2.90;;;1.20;;
44774;SDS011;31340;51.402;0.016;2022-09-24T13:58:29;4.20;;;1.55;;
44774;SDS011;31340;51.402;0.016;2022-09-24T14:01:01;3.63;;;1.10;;
44774;SDS011;31340;51.402;0.016;2022-09-24T14:03:38;2.30;;;1.02;;
44774;SDS011;31340;51.402;0.016;2022-09-24T14:06:13;3.67;;;1.05;;
44774;SDS011;31340;51.402;0.016;2022-09-24T14:08:44;4.20;;;1.30;;
44774;SDS011;31340;51.402;0.016;2022-09-24T14:11:19;6.20;;;1.15;;
44774;SDS011;31340;51.402;0.016;2022-09-24T14:13:50;2.58;;;1.27;;
44774;SDS011;31340;51.402;0.016;2022-09-24T14:16:23;3.00;;;1.30;;
44774;SDS011;31340;51.402;0.016;2022-09-24T14:19:01;2.63;;;1.08;;
44774;SDS011;31340;51.402;0.016;2022-09-24T14:24:16;4.03;;;1.02;;
44774;SDS011;31340;51.402;0.016;2022-09-24T14:26:46;4.07;;;1.25;;
44774;SDS011;31340;51.402;0.016;2022-09-24T14:29:21;3.75;;;0.88;;
44774;SDS011;31340;51.402;0.016;2022-09-24T14:31:57;5.72;;;1.20;;
44774;SDS011;31340;51.402;0.016;2022-09-24T14:34:37;2.50;;;1.10;;
44774;SDS011;31340;51.402;0.016;2022-09-24T14:37:15;3.28;;;1.00;;
44774;SDS011;31340;51.402;0.016;2022-09-24T14:40:11;2.90;;;1.10;;
44774;SDS011;31340;51.402;0.016;2022-09-24T14:45:20;3.58;;;1.20;;
44774;SDS011;31340;51.402;0.016;2022-09-24T14:48:04;3.28;;;0.90;;
44774;SDS011;31340;51.402;0.016;2022-09-24T14:50:43;2.10;;;1.10;;
44774;SDS011;31340;51.402;0.016;2022-09-24T14:53:32;4.32;;;1.00;;
44774;SDS011;31340;51.402;0.016;2022-09-24T14:56:16;3.65;;;0.98;;
44774;SDS011;31340;51.402;0.016;2022-09-24T14:58:44;4.55;;;1.10;;
44774;SDS011;31340;51.402;0.016;2022-09-24T15:01:18;3.30;;;1.10;;
44774;SDS011;31340;51.402;0.016;2022-09-24T15:03:48;1.00;;;0.75;;
44774;SDS011;31340;51.402;0.016;2022-09-24T15:06:30;4.00;;;1.00;;
44774;SDS011;31340;51.402;0.016;2022-09-24T15:09:02;3.97;;;1.25;;
44774;SDS011;31340;51.402;0.016;2022-09-24T15:11:47;2.22;;;0.90;;
44774;SDS011;31340;51.402;0.016;2022-09-24T15:16:43;5.30;;;1.00;;
44774;SDS011;31340;51.402;0.016;2022-09-24T15:19:19;3.03;;;1.00;;
44774;SDS011;31340;51.402;0.016;2022-09-24T15:24:22;8.05;;;1.10;;
44774;SDS011;31340;51.402;0.016;2022-09-24T15:27:00;2.83;;;0.85;;
44774;SDS011;31340;51.402;0.016;2022-09-24T15:29:33;6.68;;;0.90;;
44774;SDS011;31340;51.402;0.016;2022-09-24T15:32:00;6.78;;;1.00;;
44774;SDS011;31340;51.402;0.016;2022-09-24T15:34:28;5.65;;;1.08;;
44774;SDS011;31340;51.402;0.016;2022-09-24T15:36:56;2.13;;;0.95;;
44774;SDS011;31340;51.402;0.016;2022-09-24T15:39:25;1.25;;;0.80;;
44774;SDS011;31340;51.402;0.016;2022-09-24T15:41:54;2.15;;;0.70;;
44774;SDS011;31340;51.402;0.016;2022-09-24T15:44:23;2.58;;;0.70;;
44774;SDS011;31340;51.402;0.016;2022-09-24T15:46:59;3.00;;;0.77;;
44774;SDS011;31340;51.402;0.016;2022-09-24T15:49:27;0.85;;;0.63;;
44774;SDS011;31340;51.402;0.016;2022-09-24T15:51:56;1.95;;;0.70;;
44774;SDS011;31340;51.402;0.016;2022-09-24T15:54:27;0.73;;;0.60;;
44774;SDS011;31340;51.402;0.016;2022-09-24T15:56:55;2.53;;;1.00;;
44774;SDS011;31340;51.402;0.016;2022-09-24T15:59:22;2.92;;;0.77;;
44774;SDS011;31340;51.402;0.016;2022-09-24T16:01:50;2.17;;;0.82;;
44774;SDS011;31340;51.402;0.016;2022-09-24T16:04:20;1.55;;;0.77;;
44774;SDS011;31340;51.402;0.016;2022-09-24T16:06:48;1.75;;;0.70;;
44774;SDS011;31340;51.402;0.016;2022-09-24T16:09:16;3.10;;;0.70;;
44774;SDS011;31340;51.402;0.016;2022-09-24T16:11:43;1.52;;;0.70;;
44774;SDS011;31340;51.402;0.016;2022-09-24T16:14:11;1.80;;;0.80;;
44774;SDS011;31340;51.402;0.016;2022-09-24T16:16:39;2.05;;;0.90;;
44774;SDS011;31340;51.402;0.016;2022-09-24T16:19:06;1.40;;;0.70;;
44774;SDS011;31340;51.402;0.016;2022-09-24T16:21:35;1.70;;;0.70;;
44774;SDS011;31340;51.402;0.016;2022-09-24T16:24:03;2.25;;;0.90;;
44774;SDS011;31340;51.402;0.016;2022-09-24T16:26:31;1.05;;;0.70;;
44774;SDS011;31340;51.402;0.016;2022-09-24T16:29:00;0.85;;;0.50;;
44774;SDS011;31340;51.402;0.016;2022-09-24T16:31:30;1.42;;;0.80;;
44774;SDS011;31340;51.402;0.016;2022-09-24T16:33:58;2.10;;;0.85;;
44774;SDS011;31340;51.402;0.016;2022-09-24T16:36:25;1.40;;;0.65;;
44774;SDS011;31340;51.402;0.016;2022-09-24T16:38:53;1.67;;;0.90;;
44774;SDS011;31340;51.402;0.016;2022-09-24T16:41:21;1.92;;;0.63;;
44774;SDS011;31340;51.402;0.016;2022-09-24T16:43:52;1.48;;;0.75;;
44774;SDS011;31340;51.402;0.016;2022-09-24T16:46:22;1.80;;;0.70;;
44774;SDS011;31340;51.402;0.016;2022-09-24T16:48:50;1.95;;;0.80;;
44774;SDS011;31340;51.402;0.016;2022-09-24T16:51:18;2.67;;;1.10;;
44774;SDS011;31340;51.402;0.016;2022-09-24T16:53:46;1.23;;;0.65;;
44774;SDS011;31340;51.402;0.016;2022-09-24T16:56:15;2.22;;;0.68;;
44774;SDS011;31340;51.402;0.016;2022-09-24T16:58:44;3.20;;;0.65;;
44774;SDS011;31340;51.402;0.016;2022-09-24T17:01:12;0.43;;;0.40;;
44774;SDS011;31340;51.402;0.016;2022-09-24T17:03:52;1.77;;;0.60;;